sensor_id;sensor_type;location;lat;lon;timestamp;P1;durP1;ratioP1;P2;durP2;ratioP2
68942;SDS011;60852;52.190;4.422;2022-12-13T00:00:09;35.72;;;34.83;;
68942;SDS011;60852;52.190;4.422;2022-12-13T00:02:42;34.66;;;33.83;;
68942;SDS011;60852;52.190;4.422;2022-12-13T00:05:08;34.78;;;34.21;;
68942;SDS011;60852;52.190;4.422;2022-12-13T00:07:34;34.59;;;33.91;;
68942;SDS011;60852;52.190;4.422;2022-12-13T00:10:00;34.49;;;33.78;;
68942;SDS011;60852;52.190;4.422;2022-12-13T00:12:26;34.67;;;34.07;;
68942;SDS011;60852;52.190;4.422;2022-12-13T00:14:52;33.88;;;33.23;;
68942;SDS011;60852;52.190;4.422;2022-12-13T00:17:18;33.84;;;33.16;;
68942;SDS011;60852;52.190;4.422;2022-12-13T00:19:45;33.46;;;32.74;;
68942;SDS011;60852;52.190;4.422;2022-12-13T00:22:11;33.94;;;33.13;;
68942;SDS011;60852;52.190;4.422;2022-12-13T00:24:36;34.40;;;33.61;;
68942;SDS011;60852;52.190;4.422;2022-12-13T00:27:02;35.18;;;34.28;;
68942;SDS011;60852;52.190;4.422;2022-12-13T00:29:27;34.93;;;34.32;;
68942;SDS011;60852;52.190;4.422;2022-12-13T00:31:53;34.65;;;34.04;;
68942;SDS011;60852;52.190;4.422;2022-12-13T00:34:18;34.26;;;33.65;;
68942;SDS011;60852;52.190;4.422;2022-12-13T00:36:44;34.46;;;33.87;;
68942;SDS011;60852;52.190;4.422;2022-12-13T00:39:10;33.90;;;33.32;;
68942;SDS011;60852;52.190;4.422;2022-12-13T00:41:38;33.65;;;33.01;;
68942;SDS011;60852;52.190;4.422;2022-12-13T00:44:03;33.30;;;32.69;;
68942;SDS011;60852;52.190;4.422;2022-12-13T00:46:29;33.27;;;32.60;;
68942;SDS011;60852;52.190;4.422;2022-12-13T00:48:56;33.86;;;33.12;;
68942;SDS011;60852;52.190;4.422;2022-12-13T00:51:24;33.57;;;33.07;;
68942;SDS011;60852;52.190;4.422;2022-12-13T00:53:52;34.10;;;33.40;;
68942;SDS011;60852;52.190;4.422;2022-12-13T00:56:19;35.01;;;34.07;;
68942;SDS011;60852;52.190;4.422;2022-12-13T00:58:47;35.27;;;34.39;;
68942;SDS011;60852;52.190;4.422;2022-12-13T01:01:14;35.87;;;35.13;;
68942;SDS011;60852;52.190;4.422;2022-12-13T01:03:42;35.75;;;35.01;;
68942;SDS011;60852;52.190;4.422;2022-12-13T01:06:12;37.04;;;36.34;;
68942;SDS011;60852;52.190;4.422;2022-12-13T01:08:40;38.87;;;38.39;;
68942;SDS011;60852;52.190;4.422;2022-12-13T01:11:06;37.40;;;37.02;;
68942;SDS011;60852;52.190;4.422;2022-12-13T01:13:32;35.49;;;34.88;;
68942;SDS011;60852;52.190;4.422;2022-12-13T01:15:57;34.72;;;33.89;;
68942;SDS011;60852;52.190;4.422;2022-12-13T01:18:25;34.18;;;33.37;;
68942;SDS011;60852;52.190;4.422;2022-12-13T01:23:23;32.64;;;32.03;;
68942;SDS011;60852;52.190;4.422;2022-12-13T01:25:49;33.29;;;32.74;;
68942;SDS011;60852;52.190;4.422;2022-12-13T01:28:14;32.37;;;31.69;;
68942;SDS011;60852;52.190;4.422;2022-12-13T01:30:40;32.86;;;32.08;;
68942;SDS011;60852;52.190;4.422;2022-12-13T01:33:05;32.91;;;32.33;;
68942;SDS011;60852;52.190;4.422;2022-12-13T01:35:32;33.61;;;32.92;;
68942;SDS011;60852;52.190;4.422;2022-12-13T01:37:58;33.20;;;32.57;;
68942;SDS011;60852;52.190;4.422;2022-12-13T01:40:23;32.84;;;32.14;;
68942;SDS011;60852;52.190;4.422;2022-12-13T01:42:49;33.22;;;32.71;;
68942;SDS011;60852;52.190;4.422;2022-12-13T01:47:48;31.65;;;31.02;;
68942;SDS011;60852;52.190;4.422;2022-12-13T01:50:21;32.85;;;32.24;;
68942;SDS011;60852;52.190;4.422;2022-12-13T01:52:51;31.63;;;31.02;;
68942;SDS011;60852;52.190;4.422;2022-12-13T01:55:20;31.41;;;30.80;;
68942;SDS011;60852;52.190;4.422;2022-12-13T01:57:49;32.16;;;31.19;;
68942;SDS011;60852;52.190;4.422;2022-12-13T02:00:17;30.80;;;30.00;;
68942;SDS011;60852;52.190;4.422;2022-12-13T02:02:43;30.25;;;29.69;;
68942;SDS011;60852;52.190;4.422;2022-12-13T02:05:15;30.95;;;30.05;;
68942;SDS011;60852;52.190;4.422;2022-12-13T02:07:48;29.89;;;29.54;;
68942;SDS011;60852;52.190;4.422;2022-12-13T02:10:15;29.69;;;29.13;;
68942;SDS011;60852;52.190;4.422;2022-12-13T02:12:41;31.17;;;30.43;;
68942;SDS011;60852;52.190;4.422;2022-12-13T02:15:09;31.67;;;30.99;;
68942;SDS011;60852;52.190;4.422;2022-12-13T02:17:50;31.15;;;30.53;;
68942;SDS011;60852;52.190;4.422;2022-12-13T02:28:57;30.12;;;29.55;;
68942;SDS011;60852;52.190;4.422;2022-12-13T02:31:53;31.32;;;30.79;;
68942;SDS011;60852;52.190;4.422;2022-12-13T02:34:26;31.13;;;30.30;;
68942;SDS011;60852;52.190;4.422;2022-12-13T02:37:17;30.70;;;30.07;;
68942;SDS011;60852;52.190;4.422;2022-12-13T02:39:58;30.72;;;30.10;;
68942;SDS011;60852;52.190;4.422;2022-12-13T02:45:30;30.61;;;30.06;;
68942;SDS011;60852;52.190;4.422;2022-12-13T02:48:02;30.59;;;29.93;;
68942;SDS011;60852;52.190;4.422;2022-12-13T02:50:32;32.04;;;31.16;;
68942;SDS011;60852;52.190;4.422;2022-12-13T02:53:00;30.76;;;29.99;;
68942;SDS011;60852;52.190;4.422;2022-12-13T02:55:26;30.99;;;30.06;;
68942;SDS011;60852;52.190;4.422;2022-12-13T02:57:52;30.17;;;29.68;;
68942;SDS011;60852;52.190;4.422;2022-12-13T03:00:19;30.16;;;29.43;;
68942;SDS011;60852;52.190;4.422;2022-12-13T03:03:00;29.42;;;28.79;;
68942;SDS011;60852;52.190;4.422;2022-12-13T03:05:38;29.56;;;29.04;;
68942;SDS011;60852;52.190;4.422;2022-12-13T03:08:51;30.49;;;29.75;;
68942;SDS011;60852;52.190;4.422;2022-12-13T03:11:35;29.86;;;29.21;;
68942;SDS011;60852;52.190;4.422;2022-12-13T03:14:35;30.48;;;29.73;;
68942;SDS011;60852;52.190;4.422;2022-12-13T03:17:10;30.91;;;30.30;;
68942;SDS011;60852;52.190;4.422;2022-12-13T03:19:42;31.06;;;30.41;;
68942;SDS011;60852;52.190;4.422;2022-12-13T03:22:08;31.85;;;31.28;;
68942;SDS011;60852;52.190;4.422;2022-12-13T03:24:34;33.81;;;32.97;;
68942;SDS011;60852;52.190;4.422;2022-12-13T03:26:59;33.90;;;33.39;;
68942;SDS011;60852;52.190;4.422;2022-12-13T03:29:25;33.37;;;32.65;;
68942;SDS011;60852;52.190;4.422;2022-12-13T03:31:54;34.16;;;33.23;;
68942;SDS011;60852;52.190;4.422;2022-12-13T03:34:19;33.37;;;32.92;;
68942;SDS011;60852;52.190;4.422;2022-12-13T03:36:45;33.18;;;32.65;;
68942;SDS011;60852;52.190;4.422;2022-12-13T03:39:10;33.95;;;33.48;;
68942;SDS011;60852;52.190;4.422;2022-12-13T03:41:36;34.66;;;33.97;;
68942;SDS011;60852;52.190;4.422;2022-12-13T03:44:02;34.39;;;33.66;;
68942;SDS011;60852;52.190;4.422;2022-12-13T03:46:29;33.54;;;32.77;;
68942;SDS011;60852;52.190;4.422;2022-12-13T03:48:55;33.93;;;33.00;;
68942;SDS011;60852;52.190;4.422;2022-12-13T03:51:21;33.87;;;33.07;;
68942;SDS011;60852;52.190;4.422;2022-12-13T03:53:46;34.62;;;33.90;;
68942;SDS011;60852;52.190;4.422;2022-12-13T03:56:12;34.30;;;33.67;;
68942;SDS011;60852;52.190;4.422;2022-12-13T03:58:37;34.00;;;32.96;;
68942;SDS011;60852;52.190;4.422;2022-12-13T04:01:07;35.40;;;34.44;;
68942;SDS011;60852;52.190;4.422;2022-12-13T04:03:36;33.47;;;32.66;;
68942;SDS011;60852;52.190;4.422;2022-12-13T04:06:03;35.30;;;34.59;;
68942;SDS011;60852;52.190;4.422;2022-12-13T04:08:29;34.07;;;33.50;;
68942;SDS011;60852;52.190;4.422;2022-12-13T04:10:55;33.91;;;33.14;;
68942;SDS011;60852;52.190;4.422;2022-12-13T04:13:20;34.57;;;33.74;;
68942;SDS011;60852;52.190;4.422;2022-12-13T04:15:57;32.84;;;32.14;;
68942;SDS011;60852;52.190;4.422;2022-12-13T04:18:23;32.57;;;31.81;;
68942;SDS011;60852;52.190;4.422;2022-12-13T04:20:49;32.79;;;31.79;;
68942;SDS011;60852;52.190;4.422;2022-12-13T04:23:14;32.02;;;31.31;;
68942;SDS011;60852;52.190;4.422;2022-12-13T04:25:40;32.12;;;31.45;;
68942;SDS011;60852;52.190;4.422;2022-12-13T04:28:06;31.78;;;31.01;;
68942;SDS011;60852;52.190;4.422;2022-12-13T04:30:32;31.70;;;30.90;;
68942;SDS011;60852;52.190;4.422;2022-12-13T04:32:58;32.17;;;31.39;;
68942;SDS011;60852;52.190;4.422;2022-12-13T04:35:24;32.74;;;31.96;;
68942;SDS011;60852;52.190;4.422;2022-12-13T04:37:50;32.39;;;31.81;;
68942;SDS011;60852;52.190;4.422;2022-12-13T04:40:15;31.63;;;31.04;;
68942;SDS011;60852;52.190;4.422;2022-12-13T04:42:41;32.55;;;31.83;;
68942;SDS011;60852;52.190;4.422;2022-12-13T04:45:07;32.07;;;31.53;;
68942;SDS011;60852;52.190;4.422;2022-12-13T04:47:33;32.50;;;31.97;;
68942;SDS011;60852;52.190;4.422;2022-12-13T04:49:59;33.40;;;32.69;;
68942;SDS011;60852;52.190;4.422;2022-12-13T04:52:24;34.23;;;33.57;;
68942;SDS011;60852;52.190;4.422;2022-12-13T04:54:50;34.39;;;33.77;;
68942;SDS011;60852;52.190;4.422;2022-12-13T04:57:15;34.33;;;33.63;;
68942;SDS011;60852;52.190;4.422;2022-12-13T04:59:41;34.28;;;33.40;;
68942;SDS011;60852;52.190;4.422;2022-12-13T05:02:07;33.40;;;32.84;;
68942;SDS011;60852;52.190;4.422;2022-12-13T05:04:34;34.74;;;33.51;;
68942;SDS011;60852;52.190;4.422;2022-12-13T05:07:00;33.53;;;32.56;;
68942;SDS011;60852;52.190;4.422;2022-12-13T05:09:26;31.95;;;31.32;;
68942;SDS011;60852;52.190;4.422;2022-12-13T05:11:51;32.51;;;31.93;;
68942;SDS011;60852;52.190;4.422;2022-12-13T05:14:17;33.09;;;32.46;;
68942;SDS011;60852;52.190;4.422;2022-12-13T05:16:42;33.53;;;32.94;;
68942;SDS011;60852;52.190;4.422;2022-12-13T05:19:08;33.78;;;33.13;;
68942;SDS011;60852;52.190;4.422;2022-12-13T05:21:33;33.05;;;32.35;;
68942;SDS011;60852;52.190;4.422;2022-12-13T05:24:00;33.26;;;32.50;;
68942;SDS011;60852;52.190;4.422;2022-12-13T05:26:27;32.23;;;31.79;;
68942;SDS011;60852;52.190;4.422;2022-12-13T05:28:56;33.07;;;32.44;;
68942;SDS011;60852;52.190;4.422;2022-12-13T05:31:22;33.03;;;32.17;;
68942;SDS011;60852;52.190;4.422;2022-12-13T05:33:47;34.77;;;33.53;;
68942;SDS011;60852;52.190;4.422;2022-12-13T05:36:13;32.90;;;32.21;;
68942;SDS011;60852;52.190;4.422;2022-12-13T05:38:38;33.18;;;32.55;;
68942;SDS011;60852;52.190;4.422;2022-12-13T05:41:04;32.79;;;31.97;;
68942;SDS011;60852;52.190;4.422;2022-12-13T05:43:30;32.32;;;31.28;;
68942;SDS011;60852;52.190;4.422;2022-12-13T05:45:56;32.45;;;31.54;;
68942;SDS011;60852;52.190;4.422;2022-12-13T05:48:21;32.27;;;31.64;;
68942;SDS011;60852;52.190;4.422;2022-12-13T05:50:47;34.28;;;33.70;;
68942;SDS011;60852;52.190;4.422;2022-12-13T05:53:12;35.24;;;34.66;;
68942;SDS011;60852;52.190;4.422;2022-12-13T05:55:39;35.15;;;34.35;;
68942;SDS011;60852;52.190;4.422;2022-12-13T05:58:05;34.01;;;33.49;;
68942;SDS011;60852;52.190;4.422;2022-12-13T06:00:30;34.59;;;33.84;;
68942;SDS011;60852;52.190;4.422;2022-12-13T06:02:56;34.12;;;33.70;;
68942;SDS011;60852;52.190;4.422;2022-12-13T06:05:23;35.14;;;34.55;;
68942;SDS011;60852;52.190;4.422;2022-12-13T06:07:49;35.70;;;34.53;;
68942;SDS011;60852;52.190;4.422;2022-12-13T06:10:14;34.73;;;34.05;;
68942;SDS011;60852;52.190;4.422;2022-12-13T06:12:40;34.28;;;33.46;;
68942;SDS011;60852;52.190;4.422;2022-12-13T06:15:05;34.76;;;33.93;;
68942;SDS011;60852;52.190;4.422;2022-12-13T06:17:32;37.77;;;36.93;;
68942;SDS011;60852;52.190;4.422;2022-12-13T06:20:00;41.71;;;40.55;;
68942;SDS011;60852;52.190;4.422;2022-12-13T06:22:26;40.45;;;39.52;;
68942;SDS011;60852;52.190;4.422;2022-12-13T06:24:52;37.94;;;37.10;;
68942;SDS011;60852;52.190;4.422;2022-12-13T06:27:18;38.42;;;37.28;;
68942;SDS011;60852;52.190;4.422;2022-12-13T06:29:44;38.68;;;37.96;;
68942;SDS011;60852;52.190;4.422;2022-12-13T06:32:09;38.41;;;37.58;;
68942;SDS011;60852;52.190;4.422;2022-12-13T06:34:35;39.64;;;38.67;;
68942;SDS011;60852;52.190;4.422;2022-12-13T06:37:02;38.56;;;37.90;;
68942;SDS011;60852;52.190;4.422;2022-12-13T06:39:29;37.94;;;37.22;;
68942;SDS011;60852;52.190;4.422;2022-12-13T06:41:54;37.95;;;37.01;;
68942;SDS011;60852;52.190;4.422;2022-12-13T06:44:20;36.11;;;35.20;;
68942;SDS011;60852;52.190;4.422;2022-12-13T06:46:46;36.52;;;35.66;;
68942;SDS011;60852;52.190;4.422;2022-12-13T06:49:11;35.56;;;34.99;;
68942;SDS011;60852;52.190;4.422;2022-12-13T06:51:37;35.68;;;34.97;;
68942;SDS011;60852;52.190;4.422;2022-12-13T06:54:02;36.83;;;36.07;;
68942;SDS011;60852;52.190;4.422;2022-12-13T06:56:28;36.42;;;35.53;;
68942;SDS011;60852;52.190;4.422;2022-12-13T06:58:54;37.10;;;36.12;;
68942;SDS011;60852;52.190;4.422;2022-12-13T07:01:19;38.65;;;37.80;;
68942;SDS011;60852;52.190;4.422;2022-12-13T07:03:45;39.46;;;38.53;;
68942;SDS011;60852;52.190;4.422;2022-12-13T07:06:11;39.31;;;38.42;;
68942;SDS011;60852;52.190;4.422;2022-12-13T07:08:43;39.24;;;37.92;;
68942;SDS011;60852;52.190;4.422;2022-12-13T07:11:13;38.27;;;37.35;;
68942;SDS011;60852;52.190;4.422;2022-12-13T07:13:40;37.60;;;36.63;;
68942;SDS011;60852;52.190;4.422;2022-12-13T07:16:05;40.82;;;39.47;;
68942;SDS011;60852;52.190;4.422;2022-12-13T07:18:31;79.82;;;77.43;;
68942;SDS011;60852;52.190;4.422;2022-12-13T07:20:57;63.36;;;62.03;;
68942;SDS011;60852;52.190;4.422;2022-12-13T07:23:23;50.87;;;49.82;;
68942;SDS011;60852;52.190;4.422;2022-12-13T07:25:52;41.76;;;40.75;;
68942;SDS011;60852;52.190;4.422;2022-12-13T07:28:18;39.16;;;38.30;;
68942;SDS011;60852;52.190;4.422;2022-12-13T07:30:44;39.84;;;38.87;;
68942;SDS011;60852;52.190;4.422;2022-12-13T07:33:11;40.02;;;39.19;;
68942;SDS011;60852;52.190;4.422;2022-12-13T07:35:36;40.39;;;39.28;;
68942;SDS011;60852;52.190;4.422;2022-12-13T07:38:02;40.23;;;39.24;;
68942;SDS011;60852;52.190;4.422;2022-12-13T07:40:28;39.87;;;38.92;;
68942;SDS011;60852;52.190;4.422;2022-12-13T07:42:54;41.85;;;40.74;;
68942;SDS011;60852;52.190;4.422;2022-12-13T07:45:21;43.29;;;42.27;;
68942;SDS011;60852;52.190;4.422;2022-12-13T07:47:47;42.02;;;40.94;;
68942;SDS011;60852;52.190;4.422;2022-12-13T07:50:13;39.42;;;38.85;;
68942;SDS011;60852;52.190;4.422;2022-12-13T07:52:39;39.33;;;38.53;;
68942;SDS011;60852;52.190;4.422;2022-12-13T07:55:05;39.26;;;38.71;;
68942;SDS011;60852;52.190;4.422;2022-12-13T07:57:31;41.36;;;40.19;;
68942;SDS011;60852;52.190;4.422;2022-12-13T07:59:57;40.39;;;39.28;;
68942;SDS011;60852;52.190;4.422;2022-12-13T08:02:23;40.60;;;39.79;;
68942;SDS011;60852;52.190;4.422;2022-12-13T08:04:48;40.77;;;39.95;;
68942;SDS011;60852;52.190;4.422;2022-12-13T08:07:14;44.12;;;43.39;;
68942;SDS011;60852;52.190;4.422;2022-12-13T08:09:39;47.76;;;46.97;;
68942;SDS011;60852;52.190;4.422;2022-12-13T08:12:05;49.71;;;48.67;;
68942;SDS011;60852;52.190;4.422;2022-12-13T08:14:31;48.16;;;47.08;;
68942;SDS011;60852;52.190;4.422;2022-12-13T08:16:57;50.34;;;49.20;;
68942;SDS011;60852;52.190;4.422;2022-12-13T08:19:22;52.09;;;50.98;;
68942;SDS011;60852;52.190;4.422;2022-12-13T08:21:48;49.78;;;48.66;;
68942;SDS011;60852;52.190;4.422;2022-12-13T08:24:15;50.09;;;49.01;;
68942;SDS011;60852;52.190;4.422;2022-12-13T08:26:40;47.30;;;46.38;;
68942;SDS011;60852;52.190;4.422;2022-12-13T08:29:06;47.89;;;46.74;;
68942;SDS011;60852;52.190;4.422;2022-12-13T08:31:31;50.88;;;49.62;;
68942;SDS011;60852;52.190;4.422;2022-12-13T08:33:57;49.16;;;48.44;;
68942;SDS011;60852;52.190;4.422;2022-12-13T08:36:22;48.95;;;47.54;;
68942;SDS011;60852;52.190;4.422;2022-12-13T08:38:53;51.97;;;50.53;;
68942;SDS011;60852;52.190;4.422;2022-12-13T08:41:20;48.48;;;47.29;;
68942;SDS011;60852;52.190;4.422;2022-12-13T08:43:46;47.61;;;46.56;;
68942;SDS011;60852;52.190;4.422;2022-12-13T08:46:11;45.08;;;44.07;;
68942;SDS011;60852;52.190;4.422;2022-12-13T08:48:37;44.10;;;43.09;;
68942;SDS011;60852;52.190;4.422;2022-12-13T08:51:04;45.94;;;44.92;;
68942;SDS011;60852;52.190;4.422;2022-12-13T08:53:32;45.85;;;44.74;;
68942;SDS011;60852;52.190;4.422;2022-12-13T08:55:59;42.89;;;41.98;;
68942;SDS011;60852;52.190;4.422;2022-12-13T08:58:29;44.69;;;43.84;;
68942;SDS011;60852;52.190;4.422;2022-12-13T09:00:55;44.78;;;43.87;;
68942;SDS011;60852;52.190;4.422;2022-12-13T09:03:21;48.25;;;47.16;;
68942;SDS011;60852;52.190;4.422;2022-12-13T09:05:47;47.66;;;46.59;;
68942;SDS011;60852;52.190;4.422;2022-12-13T09:08:12;46.34;;;45.38;;
68942;SDS011;60852;52.190;4.422;2022-12-13T09:10:38;54.77;;;53.55;;
68942;SDS011;60852;52.190;4.422;2022-12-13T09:13:03;51.69;;;50.81;;
68942;SDS011;60852;52.190;4.422;2022-12-13T09:15:29;49.46;;;48.28;;
68942;SDS011;60852;52.190;4.422;2022-12-13T09:17:56;46.91;;;45.51;;
68942;SDS011;60852;52.190;4.422;2022-12-13T09:20:21;46.47;;;45.46;;
68942;SDS011;60852;52.190;4.422;2022-12-13T09:22:47;45.71;;;44.72;;
68942;SDS011;60852;52.190;4.422;2022-12-13T09:25:13;45.70;;;44.43;;
68942;SDS011;60852;52.190;4.422;2022-12-13T09:27:38;46.13;;;45.16;;
68942;SDS011;60852;52.190;4.422;2022-12-13T09:30:04;48.37;;;47.30;;
68942;SDS011;60852;52.190;4.422;2022-12-13T09:32:31;45.55;;;44.34;;
68942;SDS011;60852;52.190;4.422;2022-12-13T09:34:57;44.60;;;43.62;;
68942;SDS011;60852;52.190;4.422;2022-12-13T09:37:23;44.22;;;43.08;;
68942;SDS011;60852;52.190;4.422;2022-12-13T09:39:48;44.55;;;43.39;;
68942;SDS011;60852;52.190;4.422;2022-12-13T09:42:24;44.91;;;43.62;;
68942;SDS011;60852;52.190;4.422;2022-12-13T09:45:03;45.86;;;44.37;;
68942;SDS011;60852;52.190;4.422;2022-12-13T09:47:32;46.22;;;44.77;;
68942;SDS011;60852;52.190;4.422;2022-12-13T09:50:07;44.89;;;43.79;;
68942;SDS011;60852;52.190;4.422;2022-12-13T09:52:38;45.61;;;44.68;;
68942;SDS011;60852;52.190;4.422;2022-12-13T09:55:49;46.75;;;45.64;;
68942;SDS011;60852;52.190;4.422;2022-12-13T09:57:59;46.16;;;44.93;;
68942;SDS011;60852;52.190;4.422;2022-12-13T10:00:33;48.02;;;46.28;;
68942;SDS011;60852;52.190;4.422;2022-12-13T10:02:59;47.42;;;46.33;;
68942;SDS011;60852;52.190;4.422;2022-12-13T10:05:30;51.97;;;50.81;;
68942;SDS011;60852;52.190;4.422;2022-12-13T10:08:04;46.90;;;45.73;;
68942;SDS011;60852;52.190;4.422;2022-12-13T10:10:36;47.07;;;45.90;;
68942;SDS011;60852;52.190;4.422;2022-12-13T10:13:08;46.58;;;45.46;;
68942;SDS011;60852;52.190;4.422;2022-12-13T10:15:39;45.98;;;45.05;;
68942;SDS011;60852;52.190;4.422;2022-12-13T10:18:09;44.47;;;43.42;;
68942;SDS011;60852;52.190;4.422;2022-12-13T10:20:44;43.61;;;42.41;;
68942;SDS011;60852;52.190;4.422;2022-12-13T10:23:14;44.05;;;42.99;;
68942;SDS011;60852;52.190;4.422;2022-12-13T10:25:42;43.61;;;42.52;;
68942;SDS011;60852;52.190;4.422;2022-12-13T10:28:18;43.89;;;42.88;;
68942;SDS011;60852;52.190;4.422;2022-12-13T10:30:51;47.47;;;46.39;;
68942;SDS011;60852;52.190;4.422;2022-12-13T10:33:24;57.66;;;56.46;;
68942;SDS011;60852;52.190;4.422;2022-12-13T10:39:02;62.21;;;61.11;;
68942;SDS011;60852;52.190;4.422;2022-12-13T10:41:33;54.02;;;53.18;;
68942;SDS011;60852;52.190;4.422;2022-12-13T10:46:31;46.42;;;45.70;;
68942;SDS011;60852;52.190;4.422;2022-12-13T10:48:57;45.30;;;44.05;;
68942;SDS011;60852;52.190;4.422;2022-12-13T10:51:23;41.82;;;41.06;;
68942;SDS011;60852;52.190;4.422;2022-12-13T10:53:57;42.54;;;41.46;;
68942;SDS011;60852;52.190;4.422;2022-12-13T10:56:35;51.99;;;50.46;;
68942;SDS011;60852;52.190;4.422;2022-12-13T11:02:00;73.62;;;71.01;;
68942;SDS011;60852;52.190;4.422;2022-12-13T11:04:46;51.43;;;49.76;;
68942;SDS011;60852;52.190;4.422;2022-12-13T11:07:22;45.67;;;44.67;;
68942;SDS011;60852;52.190;4.422;2022-12-13T11:09:52;46.15;;;44.84;;
68942;SDS011;60852;52.190;4.422;2022-12-13T11:12:22;46.57;;;45.22;;
68942;SDS011;60852;52.190;4.422;2022-12-13T11:14:56;46.78;;;45.37;;
68942;SDS011;60852;52.190;4.422;2022-12-13T11:17:26;45.90;;;44.91;;
68942;SDS011;60852;52.190;4.422;2022-12-13T11:20:14;47.03;;;45.98;;
68942;SDS011;60852;52.190;4.422;2022-12-13T11:22:46;48.12;;;46.84;;
68942;SDS011;60852;52.190;4.422;2022-12-13T11:25:22;46.74;;;45.57;;
68942;SDS011;60852;52.190;4.422;2022-12-13T11:30:59;50.75;;;49.69;;
68942;SDS011;60852;52.190;4.422;2022-12-13T11:39:36;47.27;;;46.25;;
68942;SDS011;60852;52.190;4.422;2022-12-13T11:42:26;44.71;;;43.47;;
68942;SDS011;60852;52.190;4.422;2022-12-13T11:47:45;47.22;;;46.39;;
68942;SDS011;60852;52.190;4.422;2022-12-13T11:50:19;46.65;;;45.53;;
68942;SDS011;60852;52.190;4.422;2022-12-13T11:52:53;45.80;;;44.77;;
68942;SDS011;60852;52.190;4.422;2022-12-13T11:55:41;47.54;;;46.40;;
68942;SDS011;60852;52.190;4.422;2022-12-13T12:01:15;51.47;;;50.70;;
68942;SDS011;60852;52.190;4.422;2022-12-13T12:04:06;53.79;;;52.64;;
68942;SDS011;60852;52.190;4.422;2022-12-13T12:06:39;45.52;;;44.63;;
68942;SDS011;60852;52.190;4.422;2022-12-13T12:09:22;47.16;;;45.68;;
68942;SDS011;60852;52.190;4.422;2022-12-13T12:11:58;48.19;;;47.27;;
68942;SDS011;60852;52.190;4.422;2022-12-13T12:14:40;53.36;;;52.10;;
68942;SDS011;60852;52.190;4.422;2022-12-13T12:17:23;49.40;;;48.16;;
68942;SDS011;60852;52.190;4.422;2022-12-13T12:19:54;48.33;;;47.35;;
68942;SDS011;60852;52.190;4.422;2022-12-13T12:27:51;46.06;;;44.92;;
68942;SDS011;60852;52.190;4.422;2022-12-13T12:30:35;46.25;;;45.28;;
68942;SDS011;60852;52.190;4.422;2022-12-13T12:39:13;46.73;;;45.73;;
68942;SDS011;60852;52.190;4.422;2022-12-13T12:41:51;46.24;;;44.88;;
68942;SDS011;60852;52.190;4.422;2022-12-13T12:53:01;48.43;;;47.29;;
68942;SDS011;60852;52.190;4.422;2022-12-13T12:55:54;48.33;;;47.10;;
68942;SDS011;60852;52.190;4.422;2022-12-13T13:01:37;49.53;;;48.37;;
68942;SDS011;60852;52.190;4.422;2022-12-13T13:04:16;48.75;;;47.75;;
68942;SDS011;60852;52.190;4.422;2022-12-13T13:06:48;48.46;;;47.41;;
68942;SDS011;60852;52.190;4.422;2022-12-13T13:09:19;51.37;;;50.08;;
68942;SDS011;60852;52.190;4.422;2022-12-13T13:11:46;51.50;;;50.03;;
68942;SDS011;60852;52.190;4.422;2022-12-13T13:14:25;49.90;;;48.45;;
68942;SDS011;60852;52.190;4.422;2022-12-13T13:16:54;50.51;;;49.41;;
68942;SDS011;60852;52.190;4.422;2022-12-13T13:22:13;49.63;;;48.19;;
68942;SDS011;60852;52.190;4.422;2022-12-13T13:27:30;52.71;;;51.22;;
68942;SDS011;60852;52.190;4.422;2022-12-13T13:30:17;52.05;;;50.76;;
68942;SDS011;60852;52.190;4.422;2022-12-13T13:32:45;52.15;;;50.99;;
68942;SDS011;60852;52.190;4.422;2022-12-13T13:40:40;65.10;;;64.74;;
68942;SDS011;60852;52.190;4.422;2022-12-13T13:48:45;48.31;;;47.12;;
68942;SDS011;60852;52.190;4.422;2022-12-13T13:57:01;57.28;;;55.90;;
68942;SDS011;60852;52.190;4.422;2022-12-13T14:14:00;52.56;;;51.77;;
68942;SDS011;60852;52.190;4.422;2022-12-13T14:19:36;52.46;;;51.46;;
68942;SDS011;60852;52.190;4.422;2022-12-13T14:27:48;48.69;;;48.03;;
68942;SDS011;60852;52.190;4.422;2022-12-13T14:30:35;47.17;;;46.28;;
68942;SDS011;60852;52.190;4.422;2022-12-13T14:33:21;47.39;;;46.12;;
68942;SDS011;60852;52.190;4.422;2022-12-13T14:35:52;49.54;;;48.56;;
68942;SDS011;60852;52.190;4.422;2022-12-13T14:38:23;47.39;;;46.12;;
68942;SDS011;60852;52.190;4.422;2022-12-13T14:40:59;49.17;;;48.02;;
68942;SDS011;60852;52.190;4.422;2022-12-13T14:43:29;46.42;;;45.51;;
68942;SDS011;60852;52.190;4.422;2022-12-13T14:45:58;50.11;;;48.36;;
68942;SDS011;60852;52.190;4.422;2022-12-13T14:48:26;56.43;;;55.18;;
68942;SDS011;60852;52.190;4.422;2022-12-13T14:50:57;55.15;;;54.02;;
68942;SDS011;60852;52.190;4.422;2022-12-13T14:53:24;48.39;;;47.32;;
68942;SDS011;60852;52.190;4.422;2022-12-13T14:56:03;47.70;;;46.62;;
68942;SDS011;60852;52.190;4.422;2022-12-13T14:58:38;52.70;;;51.59;;
68942;SDS011;60852;52.190;4.422;2022-12-13T15:01:05;51.63;;;50.47;;
68942;SDS011;60852;52.190;4.422;2022-12-13T15:03:48;49.88;;;48.70;;
68942;SDS011;60852;52.190;4.422;2022-12-13T15:06:15;52.55;;;51.18;;
68942;SDS011;60852;52.190;4.422;2022-12-13T15:08:44;49.28;;;47.79;;
68942;SDS011;60852;52.190;4.422;2022-12-13T15:11:11;50.02;;;48.85;;
68942;SDS011;60852;52.190;4.422;2022-12-13T15:13:47;47.47;;;46.19;;
68942;SDS011;60852;52.190;4.422;2022-12-13T15:16:21;48.29;;;47.15;;
68942;SDS011;60852;52.190;4.422;2022-12-13T15:19:12;47.22;;;46.36;;
68942;SDS011;60852;52.190;4.422;2022-12-13T15:21:38;51.10;;;50.05;;
68942;SDS011;60852;52.190;4.422;2022-12-13T15:24:04;54.37;;;53.04;;
68942;SDS011;60852;52.190;4.422;2022-12-13T15:26:31;57.74;;;56.65;;
68942;SDS011;60852;52.190;4.422;2022-12-13T15:28:59;59.32;;;57.59;;
68942;SDS011;60852;52.190;4.422;2022-12-13T15:31:30;58.95;;;57.44;;
68942;SDS011;60852;52.190;4.422;2022-12-13T15:34:19;56.15;;;54.72;;
68942;SDS011;60852;52.190;4.422;2022-12-13T15:36:47;52.15;;;50.67;;
68942;SDS011;60852;52.190;4.422;2022-12-13T15:39:13;47.27;;;46.04;;
68942;SDS011;60852;52.190;4.422;2022-12-13T15:41:43;49.03;;;47.62;;
68942;SDS011;60852;52.190;4.422;2022-12-13T15:44:24;45.82;;;44.71;;
68942;SDS011;60852;52.190;4.422;2022-12-13T15:46:54;44.73;;;43.73;;
68942;SDS011;60852;52.190;4.422;2022-12-13T15:49:55;47.00;;;45.78;;
68942;SDS011;60852;52.190;4.422;2022-12-13T15:52:25;53.38;;;52.37;;
68942;SDS011;60852;52.190;4.422;2022-12-13T15:54:54;55.03;;;54.06;;
68942;SDS011;60852;52.190;4.422;2022-12-13T15:57:27;91.87;;;87.47;;
68942;SDS011;60852;52.190;4.422;2022-12-13T16:02:29;71.24;;;67.83;;
68942;SDS011;60852;52.190;4.422;2022-12-13T16:05:08;64.19;;;60.76;;
68942;SDS011;60852;52.190;4.422;2022-12-13T16:07:47;61.05;;;59.33;;
68942;SDS011;60852;52.190;4.422;2022-12-13T16:10:16;69.79;;;66.63;;
68942;SDS011;60852;52.190;4.422;2022-12-13T16:13:05;100.23;;;91.34;;
68942;SDS011;60852;52.190;4.422;2022-12-13T16:15:31;58.44;;;57.51;;
68942;SDS011;60852;52.190;4.422;2022-12-13T16:20:43;48.07;;;47.06;;
68942;SDS011;60852;52.190;4.422;2022-12-13T16:23:10;49.66;;;48.72;;
68942;SDS011;60852;52.190;4.422;2022-12-13T16:25:36;54.10;;;53.07;;
68942;SDS011;60852;52.190;4.422;2022-12-13T16:28:02;99.96;;;94.46;;